Flugplatz Donauwörth-Genderkingen

Für EDMQ sind keine METAR/TAF Berichte vorhanden.
Es werden die Flugwettermeldungen vom Flugplatz Neuburg Airport in 26 km Entfernung angezeigt.

Bericht für ETSN

vom 07.12. um 17:20 UTC

Wind 2 kt aus 110°

Sichtweite 10 km oder mehr

gering bewölkt in 4000 ft

Temperatur 0.0°C

Taupunkt -2.0°C

Luftfeuchtigkeit 86%

Luftdruck 1010 hPa

ETSN 071720Z 11002KT 9999 FEW040 M00/M02 Q1010 BLU+BLU+

Prognose für ETSN

vom 07.12. um 17:01 UTC

Zwischen 18:00 UTC und 01:00 UTC

Wind 6 kt aus 80°

Sichtweite 10 km oder mehr

keine signifikanten Wettererscheinungen

gering bewölkt in 4000 ft

aufgelockert bewölkt in 20000 ft


Am 08.12. zwischen 01:00 und 03:00 UTC übergehend zu

Wind 5 kt aus 70°

Sichtweite 10 km oder mehr

keine signifikanten Wettererscheinungen

gering bewölkt in 3000 ft

aufgebrochene Bewölkung in 10000 ft

TAF ETSN 071701Z 0718/0803 08006KT 9999 NSW FEW040 SCT200 BECMG 0801/0803 07005KT 9999 NSW FEW030 BKN100 BY ETGL
Impressum